Time;durP1;ratioP1;P1;durP2;ratioP2;P2;SDS_P1;SDS_P2;PMS_P1;PMS_P2;Temp;Humidity;BMP_temperature;BMP_pressure;BME280_temperature;BME280_humidity;BME280_pressure;Samples;Min_cycle;Max_cycle;Signal;HPM_P1;HPM_P2
2023/06/25 00:02:23;;;;;;;;;;;19.10;99.90;;;;;;5136077;27;19908;-45
2023/06/25 00:04:49;;;;;;;;;;;19.10;99.90;;;;;;5136102;27;19942;-43
2023/06/25 00:07:16;;;;;;;;;;;19.00;99.90;;;;;;5136049;27;19990;-42
2023/06/25 00:09:50;;;;;;;;;;;19.00;99.90;;;;;;5135376;27;19914;-43
2023/06/25 00:12:16;;;;;;;;;;;19.00;99.90;;;;;;5136085;27;20295;-42
2023/06/25 00:14:41;;;;;;;;;;;19.00;99.90;;;;;;5136137;27;19907;-44
2023/06/25 00:17:07;;;;;;;;;;;19.00;99.90;;;;;;5135387;27;19950;-43
2023/06/25 00:19:32;;;;;;;;;;;19.00;99.90;;;;;;5136059;27;19911;-45
2023/06/25 00:21:58;;;;;;;;;;;19.00;99.90;;;;;;5135986;27;19914;-44
2023/06/25 00:24:23;;;;;;;;;;;19.00;99.90;;;;;;5135104;27;19908;-42
2023/06/25 00:26:49;;;;;;;;;;;18.90;99.90;;;;;;5136077;27;19915;-45
2023/06/25 00:29:14;;;;;;;;;;;18.90;99.90;;;;;;5135234;27;20279;-44
2023/06/25 00:31:41;;;;;;;;;;;18.90;99.90;;;;;;5135113;27;19938;-42
2023/06/25 00:34:06;;;;;;;;;;;18.90;99.90;;;;;;5135806;27;20255;-44
2023/06/25 00:36:36;;;;;;;;;;;18.90;99.90;;;;;;5135804;27;19919;-43
2023/06/25 00:39:05;;;;;;;;;;;18.90;99.90;;;;;;5134473;27;19926;-41
2023/06/25 00:41:30;;;;;;;;;;;18.90;99.90;;;;;;5135579;27;20285;-42
2023/06/25 00:43:57;;;;;;;;;;;18.80;99.90;;;;;;5135586;27;19915;-44
2023/06/25 00:46:23;;;;;;;;;;;18.80;99.90;;;;;;5134641;27;19907;-43
2023/06/25 00:48:49;;;;;;;;;;;18.80;99.90;;;;;;5135583;27;19918;-43
2023/06/25 00:51:15;;;;;;;;;;;18.70;99.90;;;;;;5135063;27;19951;-44
2023/06/25 00:53:41;;;;;;;;;;;18.60;99.90;;;;;;5133592;27;20021;-42
2023/06/25 00:56:07;;;;;;;;;;;18.60;99.90;;;;;;5135681;27;20067;-44
2023/06/25 00:58:37;;;;;;;;;;;18.60;99.90;;;;;;5134953;27;19911;-46
2023/06/25 01:01:04;;;;;;;;;;;18.50;99.90;;;;;;5134434;27;19911;-44
2023/06/25 01:03:36;;;;;;;;;;;18.50;99.90;;;;;;5135224;27;19907;-43
2023/06/25 01:06:06;;;;;;;;;;;18.40;99.90;;;;;;5134289;27;19915;-43
2023/06/25 01:08:32;;;;;;;;;;;18.40;99.90;;;;;;5135074;27;19914;-43
2023/06/25 01:10:57;;;;;;;;;;;18.40;99.90;;;;;;5135147;27;19907;-42
2023/06/25 01:13:23;;;;;;;;;;;18.40;99.90;;;;;;5134114;27;19911;-42
2023/06/25 01:15:49;;;;;;;;;;;18.40;99.90;;;;;;5135105;27;19908;-43
2023/06/25 01:18:14;;;;;;;;;;;18.40;99.90;;;;;;5134792;27;19907;-45
2023/06/25 01:20:40;;;;;;;;;;;18.50;99.90;;;;;;5134033;27;19908;-43
2023/06/25 01:23:06;;;;;;;;;;;18.40;99.90;;;;;;5134879;27;19915;-43
2023/06/25 01:25:32;;;;;;;;;;;18.40;99.90;;;;;;5134619;27;19908;-43
2023/06/25 01:27:57;;;;;;;;;;;18.50;99.90;;;;;;5133723;27;20432;-43
2023/06/25 01:30:25;;;;;;;;;;;18.40;99.90;;;;;;5134543;27;19911;-44
2023/06/25 01:32:50;;;;;;;;;;;18.40;99.90;;;;;;5134615;27;19923;-42
2023/06/25 01:35:16;;;;;;;;;;;18.40;99.90;;;;;;5133679;27;19907;-43
2023/06/25 01:37:42;;;;;;;;;;;18.40;99.90;;;;;;5133950;27;20373;-42
2023/06/25 01:40:07;;;;;;;;;;;18.40;99.90;;;;;;5134721;27;20277;-43
2023/06/25 01:42:33;;;;;;;;;;;18.40;99.90;;;;;;5133698;27;20323;-42
2023/06/25 01:44:59;;;;;;;;;;;18.40;99.90;;;;;;5134520;27;19922;-43
2023/06/25 01:47:24;;;;;;;;;;;18.40;99.90;;;;;;5134147;27;19932;-42
2023/06/25 01:49:50;;;;;;;;;;;18.40;99.90;;;;;;5132965;27;19965;-43
2023/06/25 01:52:15;;;;;;;;;;;18.30;99.90;;;;;;5115676;27;19920;-43
2023/06/25 01:54:41;;;;;;;;;;;18.30;99.90;;;;;;5134267;27;19986;-42
2023/06/25 01:57:06;;;;;;;;;;;18.30;99.90;;;;;;5133278;27;20002;-43
2023/06/25 01:59:34;;;;;;;;;;;18.20;99.90;;;;;;5134115;27;19911;-42
2023/06/25 02:02:02;;;;;;;;;;;18.30;99.90;;;;;;5133548;27;19908;-42
2023/06/25 02:04:28;;;;;;;;;;;18.20;99.90;;;;;;5133724;27;19981;-43
2023/06/25 02:06:53;;;;;;;;;;;18.30;99.90;;;;;;5133977;27;20353;-43
2023/06/25 02:09:19;;;;;;;;;;;18.20;99.90;;;;;;5133245;27;20367;-43
2023/06/25 02:11:46;;;;;;;;;;;18.20;99.90;;;;;;5133862;27;19915;-44
2023/06/25 02:14:11;;;;;;;;;;;18.10;99.90;;;;;;5134019;27;19951;-45
2023/06/25 02:16:37;;;;;;;;;;;18.10;99.90;;;;;;5133093;27;20014;-43
2023/06/25 02:19:02;;;;;;;;;;;18.10;99.90;;;;;;5133310;27;19915;-43
2023/06/25 02:21:28;;;;;;;;;;;18.10;99.90;;;;;;5133750;27;19964;-43
2023/06/25 02:23:53;;;;;;;;;;;18.10;99.90;;;;;;5133091;27;19908;-43
2023/06/25 02:26:19;;;;;;;;;;;18.10;99.90;;;;;;5133573;27;19961;-44
2023/06/25 02:28:44;;;;;;;;;;;18.10;99.90;;;;;;5133626;27;19908;-42
2023/06/25 02:31:10;;;;;;;;;;;18.00;99.90;;;;;;5132948;27;20277;-42
2023/06/25 02:33:35;;;;;;;;;;;18.00;99.90;;;;;;5133404;28;19954;-43
2023/06/25 02:36:01;;;;;;;;;;;18.00;99.90;;;;;;5133770;28;19907;-42
2023/06/25 02:38:26;;;;;;;;;;;18.00;99.90;;;;;;5132510;28;20343;-41
2023/06/25 02:40:52;;;;;;;;;;;17.90;99.90;;;;;;5133771;28;19908;-44
2023/06/25 02:43:17;;;;;;;;;;;17.90;99.90;;;;;;5133610;28;19907;-43
2023/06/25 02:45:43;;;;;;;;;;;17.80;99.90;;;;;;5132832;28;19907;-43
2023/06/25 02:48:08;;;;;;;;;;;17.80;99.90;;;;;;5127820;28;19919;-41
2023/06/25 02:50:34;;;;;;;;;;;17.80;99.90;;;;;;5133484;28;19960;-43
2023/06/25 02:52:59;;;;;;;;;;;17.80;99.90;;;;;;5132584;28;20387;-42
2023/06/25 02:55:25;;;;;;;;;;;17.80;99.90;;;;;;5133369;28;20359;-42
2023/06/25 02:57:50;;;;;;;;;;;17.80;99.90;;;;;;5133469;28;20017;-45
2023/06/25 03:00:16;;;;;;;;;;;17.70;99.90;;;;;;5132675;28;20289;-42
2023/06/25 03:02:41;;;;;;;;;;;17.70;99.90;;;;;;5133342;28;19907;-43
2023/06/25 03:05:07;;;;;;;;;;;17.70;99.90;;;;;;5133477;28;19908;-42
2023/06/25 03:07:33;;;;;;;;;;;17.70;99.90;;;;;;5132512;28;19908;-42
2023/06/25 03:09:58;;;;;;;;;;;17.70;99.90;;;;;;5133378;28;19915;-42
2023/06/25 03:12:24;;;;;;;;;;;17.70;99.90;;;;;;5132479;28;20007;-43
2023/06/25 03:14:49;;;;;;;;;;;17.70;99.90;;;;;;5133457;28;19914;-43
2023/06/25 03:17:15;;;;;;;;;;;17.70;99.90;;;;;;5134986;27;20274;-42
2023/06/25 03:19:40;;;;;;;;;;;17.60;99.90;;;;;;5136167;27;20291;-44
2023/06/25 03:22:06;;;;;;;;;;;17.70;99.90;;;;;;5137213;27;19912;-42
2023/06/25 03:24:31;;;;;;;;;;;17.60;99.90;;;;;;5136977;27;20714;-43
2023/06/25 03:26:57;;;;;;;;;;;17.60;99.90;;;;;;5136505;27;19914;-44
2023/06/25 03:29:22;;;;;;;;;;;17.60;99.90;;;;;;5137034;27;20284;-44
2023/06/25 03:31:48;;;;;;;;;;;17.60;99.90;;;;;;5136777;27;19968;-43
2023/06/25 03:34:14;;;;;;;;;;;17.60;99.90;;;;;;5136106;27;19907;-44
2023/06/25 03:36:39;;;;;;;;;;;17.60;99.90;;;;;;5137154;27;19922;-42
2023/06/25 03:39:05;;;;;;;;;;;17.60;99.90;;;;;;5136473;27;19919;-41
2023/06/25 03:41:30;;;;;;;;;;;17.60;99.90;;;;;;5135983;27;19907;-43
2023/06/25 03:43:55;;;;;;;;;;;17.60;99.90;;;;;;5136843;27;19919;-43
2023/06/25 03:46:21;;;;;;;;;;;17.60;99.90;;;;;;5136691;27;19952;-42
2023/06/25 03:48:48;;;;;;;;;;;17.60;99.90;;;;;;5134914;27;20293;-42
2023/06/25 03:51:14;;;;;;;;;;;17.60;99.90;;;;;;5136372;27;20015;-44
2023/06/25 03:53:39;;;;;;;;;;;17.60;99.90;;;;;;5136728;27;19960;-42
2023/06/25 03:56:05;;;;;;;;;;;17.60;99.90;;;;;;5135705;27;20428;-44
2023/06/25 03:58:30;;;;;;;;;;;17.60;99.90;;;;;;5136374;27;20361;-42
2023/06/25 04:00:56;;;;;;;;;;;17.60;99.90;;;;;;5136455;27;20370;-42
2023/06/25 04:03:22;;;;;;;;;;;17.60;99.90;;;;;;5135588;27;19913;-43
2023/06/25 04:05:48;;;;;;;;;;;17.60;99.90;;;;;;5136387;27;19952;-42
2023/06/25 04:08:13;;;;;;;;;;;17.60;99.90;;;;;;5136007;27;20288;-43
2023/06/25 04:10:40;;;;;;;;;;;17.60;99.90;;;;;;5135464;27;20006;-43
2023/06/25 04:13:06;;;;;;;;;;;17.70;99.90;;;;;;5136242;27;19919;-42
2023/06/25 04:15:31;;;;;;;;;;;17.70;99.90;;;;;;5136318;27;20372;-43
2023/06/25 04:17:57;;;;;;;;;;;17.70;99.90;;;;;;5134968;27;20426;-44
2023/06/25 04:20:26;;;;;;;;;;;17.70;99.90;;;;;;5135890;27;19918;-46
2023/06/25 04:22:51;;;;;;;;;;;17.70;99.90;;;;;;5135382;27;19915;-43
2023/06/25 04:25:17;;;;;;;;;;;17.80;99.90;;;;;;5135901;27;19907;-43
2023/06/25 04:27:42;;;;;;;;;;;17.80;99.90;;;;;;5135512;27;20020;-42
2023/06/25 04:30:08;;;;;;;;;;;17.80;99.90;;;;;;5135009;27;20008;-43
2023/06/25 04:32:34;;;;;;;;;;;17.80;99.90;;;;;;5135773;27;19919;-42
2023/06/25 04:35:00;;;;;;;;;;;17.80;99.90;;;;;;5135611;27;19953;-42
2023/06/25 04:37:25;;;;;;;;;;;17.90;99.90;;;;;;5134928;27;19923;-42
2023/06/25 04:39:51;;;;;;;;;;;17.90;99.90;;;;;;5135462;27;19919;-43
2023/06/25 04:42:16;;;;;;;;;;;17.90;99.90;;;;;;5135531;27;19938;-43
2023/06/25 04:44:42;;;;;;;;;;;18.00;99.90;;;;;;5134595;27;19943;-42
2023/06/25 04:47:07;;;;;;;;;;;18.00;99.90;;;;;;5135672;27;19960;-43
2023/06/25 04:49:33;;;;;;;;;;;18.00;99.90;;;;;;5128170;27;20243;-42
2023/06/25 04:51:58;;;;;;;;;;;18.00;99.90;;;;;;5134395;27;19974;-42
2023/06/25 04:54:24;;;;;;;;;;;18.10;99.90;;;;;;5135283;27;20159;-43
2023/06/25 04:56:49;;;;;;;;;;;18.10;99.90;;;;;;5135532;27;19950;-42
2023/06/25 04:59:14;;;;;;;;;;;18.10;99.90;;;;;;5125378;27;20357;-45
2023/06/25 05:01:40;;;;;;;;;;;18.10;99.90;;;;;;5114568;28;19908;-44
2023/06/25 05:04:05;;;;;;;;;;;18.20;99.90;;;;;;5114639;28;19911;-42
2023/06/25 05:06:31;;;;;;;;;;;18.20;99.90;;;;;;5113721;28;19998;-44
2023/06/25 05:08:57;;;;;;;;;;;18.20;99.90;;;;;;5114644;28;19908;-45
2023/06/25 05:11:22;;;;;;;;;;;18.30;99.90;;;;;;5114113;28;20286;-43
2023/06/25 05:13:48;;;;;;;;;;;18.30;99.90;;;;;;5113689;28;19990;-44
2023/06/25 05:16:13;;;;;;;;;;;18.40;99.90;;;;;;5114419;28;20384;-44
2023/06/25 05:18:39;;;;;;;;;;;18.40;99.90;;;;;;5122538;27;19976;-42
2023/06/25 05:21:05;;;;;;;;;;;18.40;99.90;;;;;;5134059;27;19911;-44
2023/06/25 05:23:37;;;;;;;;;;;18.50;99.90;;;;;;5134715;27;19908;-44
2023/06/25 05:26:02;;;;;;;;;;;18.50;99.90;;;;;;5134029;27;19954;-42
2023/06/25 05:28:28;;;;;;;;;;;18.60;99.90;;;;;;5134677;27;20021;-43
2023/06/25 05:30:53;;;;;;;;;;;18.60;99.90;;;;;;5134490;27;19908;-43
2023/06/25 05:33:18;;;;;;;;;;;18.70;99.90;;;;;;5127462;27;20395;-44
2023/06/25 05:35:44;;;;;;;;;;;18.80;99.90;;;;;;5134011;27;19907;-43
2023/06/25 05:38:09;;;;;;;;;;;18.80;99.90;;;;;;5133566;27;20424;-42
2023/06/25 05:40:35;;;;;;;;;;;18.80;99.90;;;;;;5132490;27;19916;-42
2023/06/25 05:43:00;;;;;;;;;;;18.90;99.90;;;;;;5133861;27;20316;-45
2023/06/25 05:45:26;;;;;;;;;;;19.00;99.90;;;;;;5133622;27;20366;-43
2023/06/25 05:47:51;;;;;;;;;;;19.00;99.90;;;;;;5132682;27;20481;-45
2023/06/25 05:50:17;;;;;;;;;;;19.10;99.90;;;;;;5133195;27;19912;-42
2023/06/25 05:52:43;;;;;;;;;;;19.10;99.90;;;;;;5133398;27;19961;-45
2023/06/25 05:55:09;;;;;;;;;;;19.20;99.90;;;;;;5132779;27;19908;-44
2023/06/25 05:57:34;;;;;;;;;;;19.20;99.90;;;;;;5133437;27;19908;-43
2023/06/25 06:00:00;;;;;;;;;;;19.30;99.90;;;;;;5133484;27;19908;-43
2023/06/25 06:02:26;;;;;;;;;;;19.30;99.90;;;;;;5132689;27;19911;-43
2023/06/25 06:04:51;;;;;;;;;;;19.40;99.90;;;;;;5133379;27;20362;-44
2023/06/25 06:07:17;;;;;;;;;;;19.50;99.90;;;;;;5133316;27;19914;-42
2023/06/25 06:09:43;;;;;;;;;;;19.50;99.90;;;;;;5132661;27;19966;-42
2023/06/25 06:12:08;;;;;;;;;;;19.60;99.90;;;;;;5133253;27;20400;-42
2023/06/25 06:14:34;;;;;;;;;;;19.60;99.90;;;;;;5133512;27;19907;-44
2023/06/25 06:17:00;;;;;;;;;;;19.70;99.90;;;;;;5132540;27;19907;-43
2023/06/25 06:19:25;;;;;;;;;;;19.80;99.90;;;;;;5133193;27;19918;-43
2023/06/25 06:21:51;;;;;;;;;;;19.90;99.90;;;;;;5132836;27;19915;-44
2023/06/25 06:24:16;;;;;;;;;;;20.00;99.90;;;;;;5132701;27;19968;-42
2023/06/25 06:26:42;;;;;;;;;;;20.00;99.90;;;;;;5133391;27;20018;-42
2023/06/25 06:29:07;;;;;;;;;;;20.10;99.90;;;;;;5133499;27;19922;-43
2023/06/25 06:31:33;;;;;;;;;;;20.20;99.90;;;;;;5132915;27;19923;-43
2023/06/25 06:33:58;;;;;;;;;;;20.20;99.90;;;;;;5133706;27;19990;-43
2023/06/25 06:36:24;;;;;;;;;;;20.30;99.90;;;;;;5132951;27;19961;-43
2023/06/25 06:38:50;;;;;;;;;;;20.40;99.90;;;;;;5133531;28;19959;-44
2023/06/25 06:41:15;;;;;;;;;;;20.50;99.90;;;;;;5133537;28;19914;-45
2023/06/25 06:43:41;;;;;;;;;;;20.50;99.90;;;;;;5121014;28;19911;-42
2023/06/25 06:46:06;;;;;;;;;;;20.60;99.90;;;;;;5116602;28;19912;-43
2023/06/25 06:48:32;;;;;;;;;;;20.70;99.90;;;;;;5117739;28;20368;-44
2023/06/25 06:50:57;;;;;;;;;;;20.80;99.90;;;;;;5133886;27;20373;-43
2023/06/25 06:53:23;;;;;;;;;;;20.90;99.90;;;;;;5136961;27;19919;-43
2023/06/25 06:55:49;;;;;;;;;;;20.90;99.90;;;;;;5131097;27;19908;-44
2023/06/25 06:58:14;;;;;;;;;;;21.00;99.90;;;;;;5124725;27;19919;-43
2023/06/25 07:00:40;;;;;;;;;;;21.10;99.90;;;;;;5118228;27;19911;-44
2023/06/25 07:03:05;;;;;;;;;;;21.20;99.90;;;;;;5129646;27;19990;-45
2023/06/25 07:05:31;;;;;;;;;;;21.30;99.90;;;;;;5130053;27;19912;-43
2023/06/25 07:07:56;;;;;;;;;;;21.40;99.90;;;;;;5136109;27;20330;-44
2023/06/25 07:10:22;;;;;;;;;;;21.40;99.90;;;;;;5133159;27;19919;-44
2023/06/25 07:12:47;;;;;;;;;;;21.50;99.90;;;;;;5133504;27;20499;-44
2023/06/25 07:15:13;;;;;;;;;;;21.60;99.90;;;;;;5135402;27;20323;-45
2023/06/25 07:17:39;;;;;;;;;;;21.70;99.90;;;;;;5136142;27;19915;-44
2023/06/25 07:20:04;;;;;;;;;;;21.70;99.90;;;;;;5134913;27;19911;-43
2023/06/25 07:22:32;;;;;;;;;;;21.80;99.90;;;;;;5125262;27;19938;-43
2023/06/25 07:24:58;;;;;;;;;;;21.90;99.90;;;;;;5121967;27;19931;-43
2023/06/25 07:27:24;;;;;;;;;;;22.00;99.90;;;;;;5135330;27;19912;-44
2023/06/25 07:29:49;;;;;;;;;;;22.10;99.90;;;;;;5120365;27;19911;-44
2023/06/25 07:32:15;;;;;;;;;;;22.20;99.90;;;;;;5125657;27;19916;-44
2023/06/25 07:34:40;;;;;;;;;;;22.30;99.90;;;;;;5121738;27;19966;-43
2023/06/25 07:37:06;;;;;;;;;;;22.40;99.90;;;;;;5123392;27;19912;-44
2023/06/25 07:39:33;;;;;;;;;;;22.40;99.90;;;;;;5127239;27;19962;-44
2023/06/25 07:41:58;;;;;;;;;;;22.50;99.90;;;;;;5119878;27;20209;-43
2023/06/25 07:44:24;;;;;;;;;;;22.70;99.90;;;;;;5129299;27;19969;-44
2023/06/25 07:46:50;;;;;;;;;;;22.80;99.90;;;;;;5120011;27;19960;-45
2023/06/25 07:49:15;;;;;;;;;;;22.90;99.90;;;;;;5121759;27;19912;-43
2023/06/25 07:51:45;;;;;;;;;;;23.00;99.90;;;;;;5135638;27;19942;-43
2023/06/25 07:54:11;;;;;;;;;;;23.00;99.90;;;;;;5134209;27;19919;-44
2023/06/25 07:56:37;;;;;;;;;;;23.10;99.90;;;;;;5134991;27;19934;-43
2023/06/25 07:59:02;;;;;;;;;;;23.20;99.90;;;;;;5136062;27;19994;-43
2023/06/25 08:01:29;;;;;;;;;;;23.30;99.90;;;;;;5135579;27;20309;-44
2023/06/25 08:03:55;;;;;;;;;;;23.40;99.90;;;;;;5126082;27;19916;-43
2023/06/25 08:06:21;;;;;;;;;;;23.50;99.90;;;;;;5119437;27;19935;-44
2023/06/25 08:08:46;;;;;;;;;;;23.60;99.90;;;;;;5120948;27;19951;-45
2023/06/25 08:11:12;;;;;;;;;;;23.70;99.90;;;;;;5119869;27;20487;-45
2023/06/25 08:13:37;;;;;;;;;;;23.80;99.90;;;;;;5124225;27;19917;-44
2023/06/25 08:16:03;;;;;;;;;;;23.90;99.90;;;;;;5127674;27;20417;-43
2023/06/25 08:18:28;;;;;;;;;;;24.00;99.90;;;;;;5123646;27;19960;-48
2023/06/25 08:20:54;;;;;;;;;;;24.00;99.90;;;;;;5115579;28;19938;-44
2023/06/25 08:23:19;;;;;;;;;;;24.20;99.90;;;;;;5114735;28;19908;-43
2023/06/25 08:25:45;;;;;;;;;;;24.20;99.90;;;;;;5115423;28;20415;-44
2023/06/25 08:28:10;;;;;;;;;;;24.30;99.90;;;;;;5115294;28;19907;-43
2023/06/25 08:30:36;;;;;;;;;;;24.40;99.90;;;;;;5114616;28;19943;-43
2023/06/25 08:33:01;;;;;;;;;;;24.50;99.90;;;;;;5115222;28;19941;-43
2023/06/25 08:35:27;;;;;;;;;;;24.60;99.90;;;;;;5115291;27;19946;-44
2023/06/25 08:37:52;;;;;;;;;;;24.70;99.90;;;;;;5123235;27;20385;-44
2023/06/25 08:40:18;;;;;;;;;;;24.80;99.90;;;;;;5135170;27;19964;-42
2023/06/25 08:42:43;;;;;;;;;;;24.90;99.90;;;;;;5134820;27;19939;-44
2023/06/25 08:45:10;;;;;;;;;;;25.00;99.90;;;;;;5125170;27;19915;-44
2023/06/25 08:47:39;;;;;;;;;;;25.10;99.90;;;;;;5125955;27;19916;-44
2023/06/25 08:50:05;;;;;;;;;;;25.20;99.90;;;;;;5126382;27;19943;-43
2023/06/25 08:52:32;;;;;;;;;;;25.30;99.90;;;;;;5135651;27;19916;-43
2023/06/25 08:54:57;;;;;;;;;;;25.30;99.90;;;;;;5136158;27;19916;-44
2023/06/25 08:57:23;;;;;;;;;;;25.40;99.90;;;;;;5132039;27;19994;-43
2023/06/25 08:59:48;;;;;;;;;;;25.50;99.90;;;;;;5122139;27;20293;-46
2023/06/25 09:02:14;;;;;;;;;;;25.50;99.90;;;;;;5118717;27;19912;-43
2023/06/25 09:04:39;;;;;;;;;;;25.50;99.90;;;;;;5114914;28;19998;-45
2023/06/25 09:07:08;;;;;;;;;;;25.60;99.90;;;;;;5115368;28;20354;-47
2023/06/25 09:09:34;;;;;;;;;;;25.70;99.90;;;;;;5115188;28;20262;-46
2023/06/25 09:11:59;;;;;;;;;;;25.80;99.90;;;;;;5125725;27;19916;-43
2023/06/25 09:14:25;;;;;;;;;;;25.80;99.90;;;;;;5134772;27;19914;-44
2023/06/25 09:16:51;;;;;;;;;;;25.90;99.90;;;;;;5135789;27;19907;-43
2023/06/25 09:19:19;;;;;;;;;;;25.90;99.80;;;;;;5134745;27;19918;-43
2023/06/25 09:21:46;;;;;;;;;;;26.10;99.90;;;;;;5134607;27;19908;-43
2023/06/25 09:24:15;;;;;;;;;;;26.20;99.90;;;;;;5134653;27;19908;-45
2023/06/25 09:26:51;;;;;;;;;;;26.30;99.90;;;;;;5134027;27;20010;-44
2023/06/25 09:29:16;;;;;;;;;;;26.20;96.50;;;;;;5119708;27;19934;-43
2023/06/25 09:31:43;;;;;;;;;;;26.30;95.90;;;;;;5130717;27;20381;-44
2023/06/25 09:34:09;;;;;;;;;;;26.30;95.30;;;;;;5123632;27;20010;-43
2023/06/25 09:36:35;;;;;;;;;;;26.40;93.80;;;;;;5133710;27;19994;-44
2023/06/25 09:39:02;;;;;;;;;;;26.40;94.60;;;;;;5134261;27;19943;-44
2023/06/25 09:41:28;;;;;;;;;;;26.50;94.50;;;;;;5133261;27;19911;-43
2023/06/25 09:43:58;;;;;;;;;;;26.60;94.10;;;;;;5133848;27;20306;-44
2023/06/25 09:46:24;;;;;;;;;;;26.70;94.30;;;;;;5132541;27;19915;-42
2023/06/25 09:48:51;;;;;;;;;;;26.70;94.90;;;;;;5132234;27;20251;-44
2023/06/25 09:51:19;;;;;;;;;;;26.70;95.30;;;;;;5133500;27;20012;-44
2023/06/25 09:53:47;;;;;;;;;;;26.80;94.60;;;;;;5133192;27;19934;-43
2023/06/25 09:56:14;;;;;;;;;;;26.90;96.10;;;;;;5150835;27;19911;-44
2023/06/25 09:58:39;;;;;;;;;;;27.00;95.50;;;;;;5154652;27;19963;-47
2023/06/25 10:01:05;;;;;;;;;;;27.00;94.40;;;;;;5144483;27;20362;-44
2023/06/25 10:03:30;;;;;;;;;;;27.10;93.30;;;;;;5134151;27;19911;-43
2023/06/25 10:05:56;;;;;;;;;;;27.10;91.80;;;;;;5132885;27;19911;-44
2023/06/25 10:08:22;;;;;;;;;;;27.10;93.40;;;;;;5114332;27;19911;-44
2023/06/25 10:10:58;;;;;;;;;;;27.10;91.80;;;;;;5125681;27;19911;-44
2023/06/25 10:13:24;;;;;;;;;;;27.20;92.50;;;;;;5133260;27;20293;-44
2023/06/25 10:15:56;;;;;;;;;;;27.40;92.60;;;;;;5132611;27;19919;-45
2023/06/25 10:18:23;;;;;;;;;;;27.50;93.20;;;;;;5132680;27;20030;-45
2023/06/25 10:20:48;;;;;;;;;;;27.50;91.00;;;;;;5125126;27;19918;-45
2023/06/25 10:23:19;;;;;;;;;;;27.60;90.90;;;;;;5122919;27;19908;-47
2023/06/25 10:25:52;;;;;;;;;;;27.60;90.20;;;;;;5131286;27;20002;-44
2023/06/25 10:28:17;;;;;;;;;;;27.60;90.60;;;;;;5129376;27;19926;-43
2023/06/25 10:30:47;;;;;;;;;;;27.60;90.30;;;;;;5123185;27;19915;-43
2023/06/25 10:33:14;;;;;;;;;;;27.60;89.60;;;;;;5124437;27;19919;-44
2023/06/25 10:35:40;;;;;;;;;;;27.70;88.60;;;;;;5114898;27;20372;-44
2023/06/25 10:38:06;;;;;;;;;;;27.70;89.00;;;;;;5113258;28;19927;-41
2023/06/25 10:40:36;;;;;;;;;;;27.80;86.90;;;;;;5113300;28;19911;-43
2023/06/25 10:43:01;;;;;;;;;;;27.90;89.10;;;;;;5122316;28;19963;-44
2023/06/25 10:45:27;;;;;;;;;;;28.00;86.90;;;;;;5132244;28;19946;-44
2023/06/25 10:48:00;;;;;;;;;;;28.00;86.30;;;;;;5129297;28;19954;-45
2023/06/25 10:50:28;;;;;;;;;;;28.10;86.30;;;;;;5123811;28;20362;-44
2023/06/25 10:52:54;;;;;;;;;;;28.10;88.20;;;;;;5132426;27;19964;-43
2023/06/25 10:55:19;;;;;;;;;;;28.20;82.10;;;;;;5130755;28;19911;-44
2023/06/25 10:57:45;;;;;;;;;;;28.20;83.00;;;;;;5133191;28;19914;-45
2023/06/25 11:00:10;;;;;;;;;;;28.20;84.80;;;;;;5129179;28;19907;-45
2023/06/25 11:02:36;;;;;;;;;;;28.30;83.40;;;;;;5131214;28;19912;-44
2023/06/25 11:05:02;;;;;;;;;;;28.40;85.50;;;;;;5122889;28;19912;-44
2023/06/25 11:07:28;;;;;;;;;;;28.50;86.40;;;;;;5131063;28;20358;-44
2023/06/25 11:09:54;;;;;;;;;;;28.60;83.20;;;;;;5118945;28;19959;-44
2023/06/25 11:12:20;;;;;;;;;;;28.70;84.70;;;;;;5126205;28;19920;-42
2023/06/25 11:14:45;;;;;;;;;;;28.70;84.00;;;;;;5126890;28;20431;-43
2023/06/25 11:17:14;;;;;;;;;;;28.70;81.80;;;;;;5125287;28;19912;-42
2023/06/25 11:19:40;;;;;;;;;;;28.70;81.90;;;;;;5128155;28;19919;-43
2023/06/25 11:22:09;;;;;;;;;;;28.70;75.80;;;;;;5131312;28;19930;-45
2023/06/25 11:24:36;;;;;;;;;;;28.80;83.30;;;;;;5127349;28;19967;-45
2023/06/25 11:27:01;;;;;;;;;;;28.90;87.50;;;;;;5129475;28;19916;-43
2023/06/25 11:29:36;;;;;;;;;;;29.00;85.00;;;;;;5127256;28;19922;-44
2023/06/25 11:32:05;;;;;;;;;;;29.00;77.50;;;;;;5122244;28;19975;-44
2023/06/25 11:34:31;;;;;;;;;;;29.00;80.80;;;;;;5122909;28;20255;-43
2023/06/25 11:36:57;;;;;;;;;;;29.00;80.00;;;;;;5124718;27;20044;-45
2023/06/25 11:39:22;;;;;;;;;;;29.10;82.00;;;;;;5125555;27;20018;-47
2023/06/25 11:41:48;;;;;;;;;;;29.20;83.50;;;;;;5116095;28;19922;-43
2023/06/25 11:44:17;;;;;;;;;;;29.30;78.10;;;;;;5116154;27;19915;-45
2023/06/25 11:46:43;;;;;;;;;;;29.30;78.60;;;;;;5124803;27;20312;-44
2023/06/25 11:49:09;;;;;;;;;;;29.40;80.10;;;;;;5126396;27;19981;-44
2023/06/25 11:51:34;;;;;;;;;;;29.40;75.30;;;;;;5126337;27;20304;-45
2023/06/25 11:54:00;;;;;;;;;;;29.50;74.60;;;;;;5115155;28;20297;-44
2023/06/25 11:56:25;;;;;;;;;;;29.40;76.00;;;;;;5135012;27;20002;-45
2023/06/25 11:58:51;;;;;;;;;;;29.50;78.60;;;;;;5136605;27;20270;-43
2023/06/25 12:01:17;;;;;;;;;;;29.50;73.60;;;;;;5129892;27;19933;-45
2023/06/25 12:03:43;;;;;;;;;;;29.50;74.70;;;;;;5133408;27;19920;-46
2023/06/25 12:06:09;;;;;;;;;;;29.60;78.60;;;;;;5135652;27;19918;-47
2023/06/25 12:08:34;;;;;;;;;;;29.70;80.00;;;;;;5136101;27;20277;-44
2023/06/25 12:10:59;;;;;;;;;;;29.70;76.30;;;;;;5137045;27;19958;-44
2023/06/25 12:13:25;;;;;;;;;;;29.70;73.50;;;;;;5130366;27;20362;-44
2023/06/25 12:15:50;;;;;;;;;;;29.80;75.60;;;;;;5116029;28;19908;-45
2023/06/25 12:18:16;;;;;;;;;;;29.80;77.20;;;;;;5116529;28;20402;-44
2023/06/25 12:20:42;;;;;;;;;;;29.90;75.90;;;;;;5116231;28;20338;-44
2023/06/25 12:23:08;;;;;;;;;;;30.00;81.00;;;;;;5123747;27;19919;-45
2023/06/25 12:25:33;;;;;;;;;;;30.10;78.30;;;;;;5136553;27;19907;-43
2023/06/25 12:28:00;;;;;;;;;;;30.20;75.90;;;;;;5136157;27;19914;-44
2023/06/25 12:30:25;;;;;;;;;;;30.30;77.00;;;;;;5136677;27;19907;-43
2023/06/25 12:32:51;;;;;;;;;;;30.40;74.30;;;;;;5133464;27;19920;-45
2023/06/25 12:35:18;;;;;;;;;;;30.40;73.70;;;;;;5127259;27;19919;-43
2023/06/25 12:37:43;;;;;;;;;;;30.50;75.20;;;;;;5131544;27;19912;-43
2023/06/25 12:40:09;;;;;;;;;;;30.60;75.70;;;;;;5130063;27;20360;-45
2023/06/25 12:42:34;;;;;;;;;;;30.80;80.80;;;;;;5134229;27;20025;-43
2023/06/25 12:45:00;;;;;;;;;;;31.20;78.90;;;;;;5132880;27;19931;-43
2023/06/25 12:47:25;;;;;;;;;;;31.40;76.20;;;;;;5136244;27;19994;-45
2023/06/25 12:49:51;;;;;;;;;;;31.60;75.30;;;;;;5134815;27;19937;-43
2023/06/25 12:52:16;;;;;;;;;;;31.70;73.10;;;;;;5135622;27;20023;-43
2023/06/25 12:54:43;;;;;;;;;;;31.80;72.10;;;;;;5130338;27;19911;-44
2023/06/25 12:57:08;;;;;;;;;;;32.00;72.70;;;;;;5129245;27;19991;-44
2023/06/25 12:59:34;;;;;;;;;;;32.10;69.20;;;;;;5132660;27;20010;-44
2023/06/25 13:02:00;;;;;;;;;;;32.20;69.40;;;;;;5133371;27;19915;-45
2023/06/25 13:04:25;;;;;;;;;;;32.50;73.60;;;;;;5115905;27;19957;-45
2023/06/25 13:06:51;;;;;;;;;;;32.60;67.40;;;;;;5118726;27;19936;-43
2023/06/25 13:09:16;;;;;;;;;;;32.90;70.60;;;;;;5130860;27;19911;-45
2023/06/25 13:11:42;;;;;;;;;;;33.00;66.20;;;;;;5131774;27;20011;-43
2023/06/25 13:14:07;;;;;;;;;;;33.10;66.70;;;;;;5132619;27;20292;-45
2023/06/25 13:16:33;;;;;;;;;;;33.10;64.70;;;;;;5131578;27;19911;-44
2023/06/25 13:18:58;;;;;;;;;;;33.10;65.60;;;;;;5133911;27;19914;-46
2023/06/25 13:21:24;;;;;;;;;;;33.30;64.20;;;;;;5134131;27;19918;-45
2023/06/25 13:23:49;;;;;;;;;;;33.40;65.70;;;;;;5134434;27;19907;-44
2023/06/25 13:26:15;;;;;;;;;;;33.60;65.50;;;;;;5119457;27;19981;-43
2023/06/25 13:28:40;;;;;;;;;;;33.70;64.20;;;;;;5131812;27;20561;-45
2023/06/25 13:31:05;;;;;;;;;;;34.00;63.90;;;;;;5125953;27;19951;-45
2023/06/25 13:33:31;;;;;;;;;;;34.00;64.10;;;;;;5120282;27;19927;-45
2023/06/25 13:35:56;;;;;;;;;;;34.20;62.60;;;;;;5129571;27;19964;-43
2023/06/25 13:38:23;;;;;;;;;;;34.10;62.20;;;;;;5121085;27;19920;-46
2023/06/25 13:40:48;;;;;;;;;;;34.10;62.70;;;;;;5125994;27;20392;-44
2023/06/25 13:43:14;;;;;;;;;;;34.10;63.30;;;;;;5117650;27;19907;-43
2023/06/25 13:45:40;;;;;;;;;;;34.20;62.10;;;;;;5130921;27;19918;-43
2023/06/25 13:48:06;;;;;;;;;;;34.30;62.90;;;;;;5125701;27;20373;-43
2023/06/25 13:50:32;;;;;;;;;;;34.00;62.90;;;;;;5127574;27;20419;-44
2023/06/25 13:52:57;;;;;;;;;;;34.00;62.60;;;;;;5120916;27;19923;-44
2023/06/25 13:55:23;;;;;;;;;;;34.00;62.30;;;;;;5134878;27;19907;-43
2023/06/25 13:57:48;;;;;;;;;;;34.30;64.80;;;;;;5134094;27;19907;-44
2023/06/25 14:00:14;;;;;;;;;;;34.50;62.90;;;;;;5124932;27;19912;-45
2023/06/25 14:02:39;;;;;;;;;;;34.90;63.40;;;;;;5121795;27;19954;-44
2023/06/25 14:05:05;;;;;;;;;;;35.10;61.20;;;;;;5130873;27;20353;-46
2023/06/25 14:07:30;;;;;;;;;;;35.30;60.90;;;;;;5115302;27;19919;-44
2023/06/25 14:09:56;;;;;;;;;;;35.40;60.20;;;;;;5126936;27;20002;-44